Time;durP1;ratioP1;P1;durP2;ratioP2;P2;SDS_P1;SDS_P2;PMS_P1;PMS_P2;Temp;Humidity;BMP_temperature;BMP_pressure;BME280_temperature;BME280_humidity;BME280_pressure;Samples;Min_cycle;Max_cycle;Signal;HPM_P1;HPM_P2
2022/08/07 00:01:06;;;;;;;2.80;0.45;;;18.10;99.90;;;;;;5105560;28;20031;-78
2022/08/07 00:03:32;;;;;;;0.00;0.00;;;18.00;99.90;;;;;;5105991;28;20507;-78
2022/08/07 00:05:57;;;;;;;0.20;0.20;;;18.00;99.90;;;;;;5106043;28;20034;-78
2022/08/07 00:08:23;;;;;;;0.40;0.17;;;18.10;99.90;;;;;;5087682;28;20024;-78
2022/08/07 00:10:49;;;;;;;2.70;0.80;;;18.10;99.90;;;;;;5107495;28;20024;-78
2022/08/07 00:13:16;;;;;;;0.00;0.00;;;18.10;99.90;;;;;;5107988;28;20020;-78
2022/08/07 00:15:42;;;;;;;0.35;0.35;;;18.20;99.90;;;;;;5107993;28;20020;-78
2022/08/07 00:18:08;;;;;;;0.52;0.52;;;18.20;99.90;;;;;;5107503;28;20042;-78
2022/08/07 00:20:35;;;;;;;0.10;0.10;;;18.20;99.90;;;;;;5105529;28;20032;-78
2022/08/07 00:23:03;;;;;;;0.10;0.10;;;18.20;99.90;;;;;;5106603;28;20070;-78
2022/08/07 00:25:29;;;;;;;0.00;0.00;;;18.00;99.90;;;;;;5105659;28;20024;-78
2022/08/07 00:27:54;;;;;;;1.58;0.90;;;17.90;99.90;;;;;;5105095;28;20051;-78
2022/08/07 00:30:21;;;;;;;1.55;0.90;;;18.10;99.90;;;;;;5105101;28;20151;-78
2022/08/07 00:32:48;;;;;;;2.30;1.95;;;18.10;99.90;;;;;;5105931;28;20028;-78
2022/08/07 00:35:16;;;;;;;0.03;0.03;;;18.10;99.90;;;;;;5105586;28;20547;-78
2022/08/07 00:37:42;;;;;;;0.35;0.30;;;18.20;99.90;;;;;;5105499;28;20023;-78
2022/08/07 00:40:08;;;;;;;0.10;0.10;;;18.10;99.90;;;;;;5105713;28;20027;-78
2022/08/07 00:42:34;;;;;;;0.10;0.10;;;18.30;99.90;;;;;;5105232;28;20050;-78
2022/08/07 00:45:01;;;;;;;0.00;0.00;;;18.30;99.90;;;;;;5104806;28;20024;-78
2022/08/07 00:47:26;;;;;;;0.80;0.80;;;18.30;99.90;;;;;;5104575;28;20033;-78
2022/08/07 00:49:52;;;;;;;0.00;0.00;;;18.30;99.90;;;;;;5106112;28;20058;-78
2022/08/07 00:52:18;;;;;;;0.30;0.30;;;18.40;99.90;;;;;;5087138;28;20095;-78
2022/08/07 00:54:44;;;;;;;0.10;0.10;;;18.40;99.90;;;;;;5104767;28;20027;-78
2022/08/07 00:57:11;;;;;;;0.00;0.00;;;18.50;99.90;;;;;;5103652;28;20042;-78
2022/08/07 00:59:37;;;;;;;0.10;0.10;;;18.70;99.90;;;;;;5104557;28;20032;-78
2022/08/07 01:02:07;;;;;;;0.00;0.00;;;18.60;99.90;;;;;;5104655;28;20040;-78
2022/08/07 01:04:33;;;;;;;0.10;0.10;;;18.70;99.90;;;;;;5106862;28;20067;-78
2022/08/07 01:07:00;;;;;;;4.38;1.45;;;18.60;99.90;;;;;;5106040;28;20024;-78
2022/08/07 01:09:26;;;;;;;0.10;0.10;;;18.40;99.90;;;;;;5105747;28;20059;-78
2022/08/07 01:11:53;;;;;;;1.27;0.70;;;18.40;99.90;;;;;;5106088;28;20048;-78
2022/08/07 01:14:20;;;;;;;0.30;0.30;;;18.30;99.90;;;;;;5088025;28;20050;-78
2022/08/07 01:16:46;;;;;;;1.02;0.93;;;18.30;99.90;;;;;;5076640;28;20490;-76
2022/08/07 01:19:12;;;;;;;2.45;2.10;;;18.20;99.90;;;;;;5090736;28;20024;-76
2022/08/07 01:21:38;;;;;;;2.40;0.30;;;18.10;99.90;;;;;;5091925;28;20059;-76
2022/08/07 01:24:05;;;;;;;0.50;0.50;;;18.00;99.90;;;;;;5090676;28;20475;-76
2022/08/07 01:26:32;;;;;;;0.50;0.50;;;17.90;99.90;;;;;;5090176;28;20020;-75
2022/08/07 01:28:58;;;;;;;0.45;0.45;;;18.00;99.90;;;;;;5090509;28;20028;-76
2022/08/07 01:31:30;;;;;;;0.10;0.10;;;17.90;99.90;;;;;;5090615;28;20097;-76
2022/08/07 01:33:59;;;;;;;1.63;0.85;;;17.90;99.90;;;;;;5091841;28;20054;-76
2022/08/07 01:36:27;;;;;;;0.10;0.10;;;17.80;99.90;;;;;;5090444;28;20391;-76
2022/08/07 01:38:53;;;;;;;0.20;0.20;;;17.80;99.90;;;;;;5091653;28;20012;-76
2022/08/07 01:41:21;;;;;;;0.20;0.20;;;17.60;99.90;;;;;;5090466;28;20044;-76
2022/08/07 01:43:48;;;;;;;0.20;0.20;;;17.70;99.90;;;;;;5090563;28;20050;-76
2022/08/07 01:46:15;;;;;;;3.00;1.30;;;17.70;99.90;;;;;;5073429;28;20020;-76
2022/08/07 01:48:45;;;;;;;0.10;0.10;;;17.50;99.90;;;;;;5073543;28;20089;-76
2022/08/07 01:51:20;;;;;;;0.30;0.30;;;17.50;99.90;;;;;;5091629;28;20020;-76
2022/08/07 01:53:48;;;;;;;2.20;2.03;;;17.70;99.90;;;;;;5091646;28;20066;-76
2022/08/07 01:56:32;;;;;;;0.65;0.65;;;17.70;99.90;;;;;;5090105;28;20020;-76
2022/08/07 01:59:04;;;;;;;0.52;0.52;;;17.60;99.90;;;;;;5073360;28;20379;-76
2022/08/07 02:01:35;;;;;;;0.55;0.55;;;17.60;99.90;;;;;;5090344;28;20024;-76
2022/08/07 02:04:09;;;;;;;0.98;0.93;;;17.50;99.90;;;;;;5091486;28;20024;-76
2022/08/07 02:06:38;;;;;;;0.47;0.47;;;17.40;99.90;;;;;;5090133;28;20028;-76
2022/08/07 02:09:06;;;;;;;0.10;0.10;;;17.30;99.90;;;;;;5094277;28;20063;-76
2022/08/07 02:11:35;;;;;;;0.45;0.45;;;17.20;99.90;;;;;;5076867;28;20107;-76
2022/08/07 02:14:03;;;;;;;0.10;0.10;;;17.30;99.90;;;;;;5077019;28;20390;-76
2022/08/07 02:16:30;;;;;;;12.95;1.25;;;17.40;99.90;;;;;;5093633;28;20476;-76
2022/08/07 02:18:56;;;;;;;1.75;1.00;;;17.40;99.90;;;;;;5094962;28;20538;-76
2022/08/07 02:21:23;;;;;;;0.10;0.10;;;17.20;99.90;;;;;;5096402;28;20032;-78
2022/08/07 02:23:50;;;;;;;0.20;0.20;;;17.10;99.90;;;;;;5107723;28;20070;-78
2022/08/07 02:26:17;;;;;;;0.10;0.10;;;17.10;99.90;;;;;;5108120;28;20031;-78
2022/08/07 02:28:44;;;;;;;0.85;0.85;;;17.30;99.90;;;;;;5106545;28;20099;-78
2022/08/07 02:31:11;;;;;;;0.57;0.57;;;17.50;99.90;;;;;;5106620;28;20051;-78
2022/08/07 02:33:39;;;;;;;0.10;0.10;;;17.50;99.90;;;;;;5107255;28;20539;-78
2022/08/07 02:36:06;;;;;;;0.10;0.10;;;17.50;99.90;;;;;;5106498;28;20053;-78
2022/08/07 02:38:36;;;;;;;0.10;0.10;;;17.60;99.90;;;;;;5090955;28;20023;-78
2022/08/07 02:41:02;;;;;;;0.10;0.10;;;17.60;99.90;;;;;;5090253;28;20466;-78
2022/08/07 02:43:29;;;;;;;0.75;0.75;;;17.60;99.90;;;;;;5108412;28;20016;-78
2022/08/07 02:46:00;;;;;;;0.10;0.10;;;17.50;99.90;;;;;;5106696;28;20024;-78
2022/08/07 02:48:26;;;;;;;0.22;0.22;;;17.50;99.90;;;;;;5107215;28;20027;-78
2022/08/07 02:50:53;;;;;;;0.10;0.10;;;17.50;99.90;;;;;;5107007;28;20131;-78
2022/08/07 02:53:31;;;;;;;0.10;0.10;;;17.30;99.90;;;;;;5107441;28;20016;-78
2022/08/07 02:55:58;;;;;;;0.10;0.10;;;17.30;99.90;;;;;;5089046;28;20484;-77
2022/08/07 02:58:26;;;;;;;0.38;0.38;;;17.40;99.90;;;;;;5107528;28;20020;-78
2022/08/07 03:00:54;;;;;;;0.80;0.57;;;17.50;99.90;;;;;;5106186;28;20098;-77
2022/08/07 03:03:22;;;;;;;0.10;0.10;;;17.50;99.90;;;;;;5107223;28;20043;-78
2022/08/07 03:05:53;;;;;;;8.50;4.07;;;17.60;99.90;;;;;;5104086;28;20032;-78
2022/08/07 03:08:20;;;;;;;0.65;0.55;;;17.60;99.90;;;;;;5098081;28;20039;-77
2022/08/07 03:10:46;;;;;;;0.17;0.17;;;17.40;99.90;;;;;;5097340;28;20130;-77
2022/08/07 03:13:16;;;;;;;0.10;0.10;;;17.50;99.90;;;;;;5096746;28;20020;-77
2022/08/07 03:15:43;;;;;;;0.25;0.25;;;17.60;99.90;;;;;;5098157;28;20050;-77
2022/08/07 03:18:10;;;;;;;0.30;0.30;;;17.60;99.90;;;;;;5097580;28;20540;-77
2022/08/07 03:20:36;;;;;;;0.10;0.10;;;17.70;99.90;;;;;;5097462;28;20031;-77
2022/08/07 03:23:03;;;;;;;0.17;0.17;;;17.60;99.90;;;;;;5098440;28;20021;-78
2022/08/07 03:25:31;;;;;;;0.82;0.70;;;17.50;99.90;;;;;;5098537;28;20028;-77
2022/08/07 03:27:59;;;;;;;0.30;0.30;;;17.60;99.90;;;;;;5096967;28;20157;-78
2022/08/07 03:30:26;;;;;;;0.80;0.75;;;17.60;99.90;;;;;;5098126;28;20052;-77
2022/08/07 03:32:53;;;;;;;0.10;0.10;;;17.40;99.90;;;;;;5097787;28;20098;-77
2022/08/07 03:35:23;;;;;;;0.10;0.10;;;17.40;99.90;;;;;;5097309;28;20020;-77
2022/08/07 03:38:02;;;;;;;0.30;0.30;;;17.40;99.90;;;;;;5097693;28;20020;-78
2022/08/07 03:40:29;;;;;;;0.10;0.10;;;17.40;99.90;;;;;;5097887;28;20106;-77
2022/08/07 03:42:55;;;;;;;0.52;0.52;;;17.40;99.90;;;;;;5096620;28;20061;-77
2022/08/07 03:45:24;;;;;;;0.10;0.10;;;17.60;99.90;;;;;;5096293;28;20021;-77
2022/08/07 03:47:51;;;;;;;0.10;0.10;;;17.50;99.90;;;;;;5096153;28;20096;-77
2022/08/07 03:50:19;;;;;;;0.85;0.85;;;17.50;99.90;;;;;;5096584;28;20434;-77
2022/08/07 03:52:46;;;;;;;0.10;0.10;;;17.30;99.90;;;;;;5095942;28;20039;-77
2022/08/07 03:55:12;;;;;;;0.10;0.10;;;17.20;99.90;;;;;;5095779;28;20028;-77
2022/08/07 03:57:39;;;;;;;0.47;0.47;;;17.10;99.90;;;;;;5096144;28;20024;-77
2022/08/07 04:00:07;;;;;;;0.10;0.10;;;17.10;99.90;;;;;;5097384;28;20058;-77
2022/08/07 04:02:34;;;;;;;0.73;0.73;;;17.20;99.90;;;;;;5098111;28;20107;-77
2022/08/07 04:04:59;;;;;;;0.10;0.10;;;17.20;99.90;;;;;;5097669;28;20028;-77
2022/08/07 04:07:25;;;;;;;0.10;0.10;;;17.10;99.90;;;;;;5078885;28;20020;-77
2022/08/07 04:09:52;;;;;;;0.20;0.20;;;17.10;99.90;;;;;;5096877;28;20058;-77
2022/08/07 04:12:18;;;;;;;0.20;0.20;;;17.00;99.90;;;;;;5097030;28;20485;-78
2022/08/07 04:14:45;;;;;;;0.20;0.20;;;17.00;99.90;;;;;;5097410;28;20027;-77
2022/08/07 04:17:11;;;;;;;3.03;2.30;;;17.10;99.90;;;;;;5097325;28;20020;-77
2022/08/07 04:19:41;;;;;;;3.33;1.67;;;17.20;99.90;;;;;;5097397;28;20028;-77
2022/08/07 04:22:07;;;;;;;0.40;0.40;;;17.00;99.90;;;;;;5078282;28;20202;-77
2022/08/07 04:24:34;;;;;;;0.15;0.15;;;17.00;99.90;;;;;;5094858;28;20038;-77
2022/08/07 04:27:01;;;;;;;0.20;0.20;;;16.90;99.90;;;;;;5094953;28;20024;-77
2022/08/07 04:29:28;;;;;;;0.13;0.13;;;16.90;99.90;;;;;;5078252;28;20028;-77
2022/08/07 04:31:56;;;;;;;1.02;0.82;;;17.00;99.90;;;;;;5095484;28;20027;-77
2022/08/07 04:34:23;;;;;;;0.10;0.10;;;16.90;99.90;;;;;;5094828;28;20027;-77
2022/08/07 04:36:49;;;;;;;0.10;0.10;;;16.80;99.90;;;;;;5096075;28;20388;-77
2022/08/07 04:39:15;;;;;;;1.92;1.05;;;16.90;99.90;;;;;;5096942;28;20028;-77
2022/08/07 04:41:41;;;;;;;0.30;0.30;;;17.10;99.90;;;;;;5095399;28;20507;-77
2022/08/07 04:44:08;;;;;;;0.32;0.32;;;17.20;99.90;;;;;;5096140;28;20024;-77
2022/08/07 04:46:51;;;;;;;0.10;0.10;;;17.20;99.90;;;;;;5096145;28;20028;-77
2022/08/07 04:49:32;;;;;;;0.10;0.10;;;17.20;99.90;;;;;;5078740;28;20030;-78
2022/08/07 04:52:23;;;;;;;0.08;0.08;;;17.30;99.90;;;;;;5079202;28;20026;-78
2022/08/07 04:55:10;;;;;;;1.37;1.00;;;17.50;99.90;;;;;;5095371;28;20504;-77
2022/08/07 04:57:59;;;;;;;0.68;0.68;;;17.30;99.90;;;;;;5077923;28;20353;-77
2022/08/07 05:00:52;;;;;;;0.20;0.20;;;17.10;99.90;;;;;;5094940;28;20027;-77
2022/08/07 05:03:44;;;;;;;0.00;0.00;;;16.90;99.90;;;;;;5095313;28;20020;-77
2022/08/07 05:06:29;;;;;;;0.55;0.55;;;16.90;99.90;;;;;;5096538;28;20050;-77
2022/08/07 05:09:11;;;;;;;4.18;1.30;;;16.90;99.90;;;;;;5095886;28;20095;-77
2022/08/07 05:11:43;;;;;;;6.47;1.30;;;16.90;99.90;;;;;;5078698;28;20028;-77
2022/08/07 05:14:24;;;;;;;0.40;0.40;;;16.90;99.90;;;;;;5078127;28;20026;-77
2022/08/07 05:16:55;;;;;;;0.20;0.20;;;16.80;99.90;;;;;;5093174;28;20039;-77
2022/08/07 05:19:24;;;;;;;0.08;0.08;;;16.90;99.90;;;;;;5085571;28;20042;-77
2022/08/07 05:21:54;;;;;;;0.30;0.30;;;16.90;99.90;;;;;;5070741;28;20123;-77
2022/08/07 05:24:22;;;;;;;0.20;0.20;;;16.90;99.90;;;;;;5095176;28;20339;-77
2022/08/07 05:26:54;;;;;;;1.00;0.40;;;17.00;99.90;;;;;;5076225;28;20180;-77
2022/08/07 05:29:22;;;;;;;1.10;0.45;;;17.00;99.90;;;;;;5081986;22;20127;-73
2022/08/07 05:31:48;;;;;;;0.10;0.10;;;17.10;99.90;;;;;;5031979;28;20535;-73
2022/08/07 05:34:15;;;;;;;0.30;0.30;;;17.10;99.90;;;;;;5024630;28;20053;-73
2022/08/07 05:36:52;;;;;;;0.10;0.10;;;17.10;99.90;;;;;;5018891;28;20370;-74
2022/08/07 05:39:21;;;;;;;1.48;1.08;;;17.20;99.90;;;;;;5006719;28;20655;-73
2022/08/07 05:41:48;;;;;;;4.47;1.83;;;17.20;99.90;;;;;;5012209;28;20442;-73
2022/08/07 05:44:17;;;;;;;0.85;0.60;;;17.20;99.90;;;;;;5014237;28;20084;-73
2022/08/07 05:46:47;;;;;;;0.10;0.10;;;16.90;99.90;;;;;;5015624;28;20433;-73
2022/08/07 05:49:13;;;;;;;0.20;0.20;;;17.00;99.90;;;;;;5015786;28;20060;-73
2022/08/07 05:51:41;;;;;;;0.50;0.50;;;17.10;99.90;;;;;;5015756;28;20462;-73
2022/08/07 05:54:07;;;;;;;0.30;0.30;;;17.10;99.90;;;;;;5031512;28;20064;-73
2022/08/07 05:56:35;;;;;;;1.25;0.85;;;17.20;99.90;;;;;;5033968;28;20025;-73
2022/08/07 05:59:04;;;;;;;0.20;0.20;;;17.20;99.90;;;;;;5035210;28;20100;-73
2022/08/07 06:01:31;;;;;;;0.80;0.80;;;17.10;99.90;;;;;;5035358;28;20025;-73
2022/08/07 06:03:57;;;;;;;0.32;0.32;;;17.20;99.90;;;;;;5030200;28;20477;-73
2022/08/07 06:06:24;;;;;;;1.17;0.52;;;17.10;99.90;;;;;;4997827;28;20540;-73
2022/08/07 06:08:52;;;;;;;0.30;0.30;;;17.30;99.90;;;;;;5014311;28;20056;-73
2022/08/07 06:11:18;;;;;;;0.20;0.20;;;17.30;99.90;;;;;;5015408;28;20083;-73
2022/08/07 06:13:44;;;;;;;1.45;0.85;;;17.40;99.90;;;;;;5013926;28;20026;-73
2022/08/07 06:16:10;;;;;;;0.40;0.40;;;17.40;99.90;;;;;;5015229;28;20017;-73
2022/08/07 06:18:36;;;;;;;0.28;0.28;;;17.30;99.90;;;;;;5015337;28;20018;-73
2022/08/07 06:21:04;;;;;;;0.40;0.40;;;17.40;99.90;;;;;;5015302;28;20037;-73
2022/08/07 06:23:32;;;;;;;0.40;0.40;;;17.50;99.90;;;;;;5015200;28;20504;-73
2022/08/07 06:25:59;;;;;;;0.00;0.00;;;17.60;99.90;;;;;;5013924;28;20026;-73
2022/08/07 06:28:25;;;;;;;0.50;0.50;;;17.70;99.90;;;;;;5013734;28;20029;-73
2022/08/07 06:30:51;;;;;;;0.20;0.20;;;17.30;99.90;;;;;;5013771;28;20036;-73
2022/08/07 06:33:18;;;;;;;0.10;0.10;;;17.30;99.90;;;;;;5014950;28;20097;-73
2022/08/07 06:35:44;;;;;;;0.10;0.10;;;17.40;99.90;;;;;;5013688;28;20491;-73
2022/08/07 06:38:10;;;;;;;0.20;0.20;;;17.60;99.90;;;;;;5001847;28;20027;-73
2022/08/07 06:40:45;;;;;;;0.10;0.10;;;17.70;99.90;;;;;;4977820;28;20037;-74
2022/08/07 06:43:13;;;;;;;2.28;0.85;;;17.80;99.90;;;;;;4995448;28;20089;-73
2022/08/07 06:45:40;;;;;;;0.10;0.10;;;17.80;99.90;;;;;;4995082;28;20023;-73
2022/08/07 06:48:06;;;;;;;1.45;1.35;;;17.70;99.90;;;;;;4993844;28;20018;-72
2022/08/07 06:50:34;;;;;;;0.50;0.50;;;17.70;99.90;;;;;;4993553;28;20027;-73
2022/08/07 06:53:01;;;;;;;0.28;0.28;;;17.70;99.90;;;;;;4993806;28;20061;-73
2022/08/07 06:55:30;;;;;;;0.10;0.10;;;17.80;99.90;;;;;;4994625;28;20026;-73
2022/08/07 06:58:02;;;;;;;0.43;0.43;;;17.90;99.90;;;;;;4994696;28;20018;-73
2022/08/07 07:00:33;;;;;;;2.65;2.13;;;17.80;99.90;;;;;;4994931;28;20272;-73
2022/08/07 07:03:00;;;;;;;4.60;2.15;;;17.70;99.90;;;;;;4994853;28;20544;-73
2022/08/07 07:05:26;;;;;;;0.52;0.52;;;17.80;99.90;;;;;;4994763;28;20451;-73
2022/08/07 07:07:52;;;;;;;0.22;0.22;;;17.90;99.90;;;;;;4994989;28;20418;-73
2022/08/07 07:10:27;;;;;;;0.30;0.30;;;18.10;99.90;;;;;;4993774;28;20037;-73
2022/08/07 07:12:55;;;;;;;0.25;0.25;;;18.40;99.90;;;;;;4977511;28;20465;-73
2022/08/07 07:15:26;;;;;;;0.82;0.82;;;18.30;99.90;;;;;;4993395;28;20025;-73
2022/08/07 07:17:59;;;;;;;0.20;0.20;;;18.20;99.90;;;;;;4994033;28;20050;-73
2022/08/07 07:20:30;;;;;;;0.70;0.47;;;18.30;99.90;;;;;;4991440;28;20338;-73
2022/08/07 07:22:56;;;;;;;1.50;0.95;;;18.40;99.90;;;;;;4996407;28;20026;-73
2022/08/07 07:25:22;;;;;;;3.97;2.72;;;18.40;99.90;;;;;;4985319;28;20037;-73
2022/08/07 07:28:01;;;;;;;1.77;1.30;;;18.40;99.90;;;;;;5004553;28;20105;-73
2022/08/07 07:30:32;;;;;;;0.70;0.70;;;18.40;99.90;;;;;;5012439;28;20034;-73
2022/08/07 07:33:01;;;;;;;3.20;1.13;;;18.50;99.90;;;;;;4993955;28;20026;-72
2022/08/07 07:35:27;;;;;;;0.45;0.45;;;18.40;99.90;;;;;;4994311;28;20741;-73
2022/08/07 07:37:55;;;;;;;1.17;1.08;;;18.50;99.90;;;;;;4977028;28;20050;-73
2022/08/07 07:40:22;;;;;;;0.60;0.60;;;18.60;99.90;;;;;;5001886;28;20022;-73
2022/08/07 07:42:53;;;;;;;0.10;0.10;;;18.80;99.90;;;;;;5011698;28;20477;-73
2022/08/07 07:45:22;;;;;;;0.55;0.55;;;19.00;99.90;;;;;;5013880;28;20527;-74
2022/08/07 07:47:51;;;;;;;0.30;0.30;;;19.00;99.90;;;;;;4996240;28;20026;-73
2022/08/07 07:50:20;;;;;;;0.10;0.10;;;18.80;99.90;;;;;;5012481;28;20030;-74
2022/08/07 07:52:47;;;;;;;0.47;0.47;;;18.90;99.90;;;;;;4995760;28;20018;-73
2022/08/07 07:55:16;;;;;;;0.20;0.20;;;18.90;99.90;;;;;;5011840;28;20026;-73
2022/08/07 07:57:43;;;;;;;0.10;0.10;;;18.80;99.90;;;;;;5011982;28;20014;-73
2022/08/07 08:00:10;;;;;;;2.85;2.22;;;18.90;99.90;;;;;;5011558;28;20026;-73
2022/08/07 08:02:38;;;;;;;0.90;0.85;;;18.80;99.90;;;;;;4995623;28;20551;-73
2022/08/07 08:05:07;;;;;;;4.97;1.58;;;18.40;99.90;;;;;;4995091;28;20069;-73
2022/08/07 08:07:34;;;;;;;0.20;0.20;;;18.40;99.90;;;;;;5013043;28;20083;-74
2022/08/07 08:10:01;;;;;;;2.50;1.58;;;18.40;99.90;;;;;;5013583;28;20029;-73
2022/08/07 08:12:49;;;;;;;0.80;0.40;;;18.50;99.90;;;;;;5012511;28;20477;-73
2022/08/07 08:15:14;;;;;;;0.05;0.05;;;18.60;99.90;;;;;;5011595;28;20022;-73
2022/08/07 08:17:42;;;;;;;2.55;1.27;;;18.70;99.90;;;;;;5011615;28;20025;-73
2022/08/07 08:20:10;;;;;;;0.20;0.20;;;18.80;99.90;;;;;;5013015;28;20137;-73
2022/08/07 08:28:16;;;;;;;0.50;0.50;;;18.60;99.90;;;;;;5012950;28;20030;-73
2022/08/07 08:30:44;;;;;;;0.52;0.52;;;18.60;99.90;;;;;;5011614;28;20113;-74
2022/08/07 08:33:15;;;;;;;0.35;0.35;;;18.60;99.90;;;;;;5012876;28;20036;-73
2022/08/07 08:35:42;;;;;;;0.75;0.75;;;18.60;99.90;;;;;;5011827;28;20076;-73
2022/08/07 08:38:10;;;;;;;5.40;2.17;;;18.70;99.90;;;;;;5012702;28;20444;-73
2022/08/07 08:40:40;;;;;;;1.63;1.40;;;18.70;99.90;;;;;;5012941;28;20026;-73
2022/08/07 08:43:17;;;;;;;2.63;2.30;;;18.70;99.90;;;;;;5011388;28;20128;-73
2022/08/07 08:46:00;;;;;;;0.43;0.40;;;18.70;99.90;;;;;;5012638;28;20036;-73
2022/08/07 08:48:56;;;;;;;0.55;0.55;;;18.80;99.90;;;;;;5012384;28;20466;-73
2022/08/07 08:51:36;;;;;;;1.50;1.17;;;18.70;99.90;;;;;;4995042;28;20022;-73
2022/08/07 08:54:22;;;;;;;0.10;0.10;;;18.60;99.90;;;;;;5012851;28;20025;-73
2022/08/07 08:56:51;;;;;;;2.70;0.32;;;18.40;99.90;;;;;;5011021;28;20474;-73
2022/08/07 08:59:27;;;;;;;0.47;0.47;;;18.60;99.90;;;;;;5011310;28;20022;-74
2022/08/07 09:02:05;;;;;;;1.50;1.20;;;18.70;99.90;;;;;;4995035;28;20490;-73
2022/08/07 09:04:37;;;;;;;0.55;0.40;;;18.70;99.90;;;;;;5027776;28;20025;-73
2022/08/07 09:07:23;;;;;;;4.80;1.75;;;18.60;99.90;;;;;;4994627;28;20030;-74
2022/08/07 09:09:55;;;;;;;2.08;1.13;;;18.50;99.90;;;;;;5011365;28;20061;-73
2022/08/07 09:12:36;;;;;;;2.58;2.38;;;18.60;99.90;;;;;;5011217;28;20041;-74
2022/08/07 09:15:35;;;;;;;1.10;1.00;;;18.70;99.90;;;;;;5009720;28;20485;-74
2022/08/07 09:18:27;;;;;;;0.95;0.73;;;18.70;99.90;;;;;;5011262;28;20457;-74
2022/08/07 09:21:02;;;;;;;0.00;0.00;;;18.90;99.90;;;;;;5013391;28;20022;-73
2022/08/07 09:23:58;;;;;;;0.65;0.65;;;19.10;99.90;;;;;;5014849;28;20405;-73
2022/08/07 09:26:37;;;;;;;1.15;1.05;;;19.20;99.90;;;;;;5013798;28;20029;-74
2022/08/07 09:29:41;;;;;;;0.40;0.28;;;19.30;99.90;;;;;;4997475;28;20137;-74
2022/08/07 09:32:27;;;;;;;1.20;1.10;;;19.40;99.90;;;;;;5002116;28;20053;-74
2022/08/07 09:35:15;;;;;;;2.97;1.83;;;19.40;99.90;;;;;;5001807;28;20022;-73
2022/08/07 09:37:49;;;;;;;0.13;0.13;;;19.40;99.90;;;;;;5014589;28;20033;-74
2022/08/07 09:40:42;;;;;;;1.15;0.85;;;19.50;99.90;;;;;;5015678;28;20034;-73
2022/08/07 09:43:34;;;;;;;0.43;0.43;;;19.50;99.90;;;;;;5015385;28;20034;-74
2022/08/07 09:46:08;;;;;;;;;;;19.80;99.90;;;;;;4998410;28;20367;-74
2022/08/07 09:48:57;;;;;;;6.38;1.65;;;19.60;99.90;;;;;;5015070;28;20404;-74
2022/08/07 09:51:58;;;;;;;1.40;1.30;;;19.50;99.90;;;;;;5013918;28;20117;-74
2022/08/07 09:54:54;;;;;;;0.47;0.47;;;19.70;99.90;;;;;;5015793;28;20091;-74
2022/08/07 09:57:49;;;;;;;0.95;0.50;;;19.80;99.90;;;;;;5015386;28;20033;-74
2022/08/07 10:00:20;;;;;;;0.10;0.10;;;19.80;99.90;;;;;;4997905;28;20444;-74
2022/08/07 10:03:24;;;;;;;0.08;0.08;;;20.00;99.90;;;;;;5014217;28;20029;-73
2022/08/07 10:06:05;;;;;;;0.20;0.20;;;20.10;99.90;;;;;;5015041;28;20037;-74
2022/08/07 10:09:03;;;;;;;0.97;0.97;;;20.60;99.90;;;;;;5014174;28;20037;-74
2022/08/07 10:12:07;;;;;;;0.70;0.70;;;20.80;99.90;;;;;;5015182;28;20359;-74
2022/08/07 10:15:07;;;;;;;0.32;0.32;;;21.50;99.90;;;;;;4984375;28;20037;-74
2022/08/07 10:18:07;;;;;;;0.52;0.52;;;21.90;99.90;;;;;;5013304;28;20096;-74
2022/08/07 10:20:46;;;;;;;1.17;0.75;;;22.00;99.90;;;;;;5013938;28;20034;-74
2022/08/07 10:23:18;;;;;;;0.50;0.50;;;22.10;99.90;;;;;;5013969;28;20371;-74
2022/08/07 10:26:25;;;;;;;0.57;0.57;;;22.10;99.90;;;;;;5013699;28;20397;-74
2022/08/07 10:28:57;;;;;;;0.52;0.52;;;21.90;99.90;;;;;;4986990;28;20061;-74
2022/08/07 10:31:51;;;;;;;13.85;1.88;;;22.30;99.90;;;;;;5013982;28;20121;-74
2022/08/07 10:34:45;;;;;;;0.60;0.55;;;22.90;99.90;;;;;;5013773;28;20022;-74
2022/08/07 10:37:46;;;;;;;0.13;0.13;;;23.20;99.90;;;;;;5013404;28;20022;-75
2022/08/07 10:40:28;;;;;;;1.45;0.80;;;23.10;99.90;;;;;;5014045;28;20156;-74
2022/08/07 10:43:10;;;;;;;0.63;0.63;;;23.30;99.90;;;;;;5000652;28;20048;-74
2022/08/07 10:45:38;;;;;;;0.00;0.00;;;23.10;99.90;;;;;;4993869;28;20038;-74
2022/08/07 10:48:18;;;;;;;0.08;0.08;;;22.90;99.90;;;;;;4998276;28;20548;-74
2022/08/07 10:50:55;;;;;;;0.40;0.30;;;22.80;99.90;;;;;;5014815;28;20029;-74
2022/08/07 10:53:33;;;;;;;0.40;0.40;;;22.90;99.90;;;;;;5013476;28;20534;-74
2022/08/07 10:56:12;;;;;;;0.80;0.45;;;22.80;99.90;;;;;;4996889;28;20026;-74
2022/08/07 10:59:05;;;;;;;0.00;0.00;;;22.50;99.90;;;;;;4993860;28;20395;-74
2022/08/07 11:01:54;;;;;;;0.20;0.20;;;22.40;99.90;;;;;;4994780;28;20019;-73
2022/08/07 11:04:58;;;;;;;2.90;0.28;;;22.00;99.90;;;;;;5005161;28;20364;-74
2022/08/07 11:07:36;;;;;;;0.68;0.35;;;22.20;99.90;;;;;;5010548;28;20037;-74
2022/08/07 11:10:20;;;;;;;1.35;0.55;;;22.40;99.90;;;;;;4996878;28;20030;-74
2022/08/07 11:12:56;;;;;;;0.43;0.43;;;22.30;99.90;;;;;;5012936;28;20478;-73
2022/08/07 11:15:26;;;;;;;0.08;0.08;;;22.30;99.90;;;;;;5012784;28;20056;-74
2022/08/07 11:18:03;;;;;;;0.10;0.10;;;22.30;99.90;;;;;;5012848;28;20447;-74
2022/08/07 11:20:28;;;;;;;2.35;1.20;;;22.30;99.90;;;;;;5011921;28;20036;-73
2022/08/07 11:23:03;;;;;;;0.47;0.47;;;22.20;99.90;;;;;;4995345;28;20477;-74
2022/08/07 11:25:38;;;;;;;0.65;0.40;;;22.20;99.90;;;;;;5013407;28;20030;-73
2022/08/07 11:28:15;;;;;;;1.55;0.80;;;22.10;99.90;;;;;;5007559;28;20386;-74
2022/08/07 11:30:42;;;;;;;4.25;1.75;;;22.30;99.90;;;;;;5068153;22;20509;-77
2022/08/07 11:33:14;;;;;;;1.27;0.40;;;22.30;99.90;;;;;;5092073;28;20020;-75
2022/08/07 11:35:53;;;;;;;0.50;0.50;;;22.30;99.90;;;;;;5091889;28;20016;-75
2022/08/07 11:38:35;;;;;;;0.08;0.08;;;22.20;99.90;;;;;;5086027;28;20016;-75
2022/08/07 11:41:13;;;;;;;0.60;0.60;;;22.20;99.90;;;;;;5072374;28;20034;-75
2022/08/07 11:44:08;;;;;;;0.05;0.05;;;22.20;99.90;;;;;;5071759;28;20078;-70
2022/08/07 11:46:34;;;;;;;0.63;0.63;;;22.30;99.90;;;;;;5068806;28;20036;-75
2022/08/07 11:49:22;;;;;;;0.10;0.10;;;22.40;99.90;;;;;;5072460;28;20031;-75
2022/08/07 11:51:50;;;;;;;0.00;0.00;;;22.60;99.90;;;;;;5046891;28;20036;-76
2022/08/07 11:54:25;;;;;;;0.17;0.17;;;22.60;99.90;;;;;;5033742;28;20024;-76
2022/08/07 11:56:57;;;;;;;2.08;1.75;;;22.60;99.90;;;;;;5050053;28;20044;-74
2022/08/07 11:59:36;;;;;;;0.00;0.00;;;22.60;99.90;;;;;;5052093;28;20029;-76
2022/08/07 12:02:29;;;;;;;0.10;0.10;;;22.70;99.90;;;;;;5051061;28;20063;-76
2022/08/07 12:05:07;;;;;;;0.13;0.13;;;22.70;99.90;;;;;;5049090;28;20025;-76
2022/08/07 12:07:51;;;;;;;0.47;0.35;;;22.80;99.90;;;;;;5052872;28;20028;-75
2022/08/07 12:10:23;;;;;;;0.00;0.00;;;22.70;99.90;;;;;;5051047;28;20025;-76
2022/08/07 12:13:14;;;;;;;0.43;0.43;;;22.50;99.90;;;;;;5034605;28;20438;-76
2022/08/07 12:16:04;;;;;;;0.00;0.00;;;22.30;99.90;;;;;;5052257;28;20077;-75
2022/08/07 12:18:47;;;;;;;0.08;0.08;;;22.30;99.90;;;;;;5051165;28;20021;-76
2022/08/07 12:21:31;;;;;;;0.38;0.38;;;22.40;99.90;;;;;;5051181;28;20033;-76
2022/08/07 12:24:13;;;;;;;0.40;0.40;;;22.40;99.90;;;;;;5052385;28;20484;-76
2022/08/07 12:26:57;;;;;;;0.70;0.70;;;22.50;99.90;;;;;;5052276;28;20079;-77
2022/08/07 12:29:34;;;;;;;0.73;0.68;;;22.50;99.90;;;;;;5050890;28;20466;-76
2022/08/07 12:32:23;;;;;;;0.40;0.40;;;22.40;99.90;;;;;;5052238;28;20025;-76
2022/08/07 12:34:52;;;;;;;1.55;0.75;;;22.50;99.80;;;;;;5052214;28;20035;-76
2022/08/07 12:37:19;;;;;;;3.13;0.70;;;22.70;99.90;;;;;;5052107;28;20019;-76
2022/08/07 12:39:48;;;;;;;0.10;0.10;;;22.70;99.30;;;;;;5051965;28;20383;-76
2022/08/07 12:42:19;;;;;;;0.05;0.05;;;22.60;99.50;;;;;;5050786;28;20374;-76
2022/08/07 12:44:47;;;;;;;0.10;0.10;;;22.50;99.40;;;;;;5052017;28;20032;-76
2022/08/07 12:47:36;;;;;;;0.20;0.20;;;22.80;99.50;;;;;;5050591;28;20031;-76
2022/08/07 12:50:28;;;;;;;0.10;0.10;;;23.10;97.60;;;;;;5022895;28;20119;-76
2022/08/07 12:53:16;;;;;;;0.00;0.00;;;23.20;97.20;;;;;;5052063;28;20098;-76
2022/08/07 12:55:49;;;;;;;0.47;0.43;;;23.40;97.00;;;;;;5050515;28;20021;-76
2022/08/07 12:58:18;;;;;;;0.10;0.10;;;23.40;96.20;;;;;;5051945;28;20028;-76
2022/08/07 13:00:50;;;;;;;0.77;0.68;;;23.50;95.20;;;;;;5050477;28;20085;-76
2022/08/07 13:03:41;;;;;;;0.50;0.50;;;23.40;96.00;;;;;;5051831;28;20044;-76
2022/08/07 13:06:25;;;;;;;0.10;0.10;;;23.30;94.90;;;;;;5051687;28;20028;-76
2022/08/07 13:09:11;;;;;;;0.28;0.28;;;23.30;95.20;;;;;;5051832;28;20021;-76
2022/08/07 13:11:53;;;;;;;0.10;0.10;;;23.40;94.90;;;;;;5050503;28;20052;-75
2022/08/07 13:14:46;;;;;;;0.15;0.15;;;23.50;94.30;;;;;;5050500;28;20021;-76
2022/08/07 13:17:21;;;;;;;0.20;0.20;;;23.50;93.40;;;;;;5051518;28;20112;-76
2022/08/07 13:19:59;;;;;;;0.60;0.60;;;23.30;93.20;;;;;;5051774;28;20395;-75
2022/08/07 13:22:44;;;;;;;0.40;0.40;;;23.10;94.00;;;;;;5050376;28;20028;-76
2022/08/07 13:25:22;;;;;;;0.00;0.00;;;23.00;94.30;;;;;;5051599;28;20021;-76